createdAt,value
2018-05-10T00:00:32.116Z,22.43
2018-05-10T00:02:58.319Z,27.80
2018-05-10T00:05:24.534Z,22.73
2018-05-10T00:07:50.826Z,23.23
2018-05-10T00:10:16.975Z,18.20
2018-05-10T00:12:43.168Z,21.00
2018-05-10T00:15:09.387Z,21.70
2018-05-10T00:17:35.582Z,24.63
2018-05-10T00:20:01.807Z,21.20
2018-05-10T00:22:28.007Z,24.33
2018-05-10T00:24:54.975Z,18.10
2018-05-10T00:27:21.167Z,29.30
2018-05-10T00:29:48.155Z,18.63
2018-05-10T00:32:14.371Z,27.43
2018-05-10T00:34:40.586Z,19.53
2018-05-10T00:37:07.527Z,22.10
2018-05-10T00:39:34.489Z,20.30
2018-05-10T00:42:00.711Z,27.43
2018-05-10T00:44:26.907Z,22.17
2018-05-10T00:46:53.132Z,16.40
2018-05-10T00:49:20.066Z,33.17
2018-05-10T00:51:47.044Z,20.70
2018-05-10T00:54:26.406Z,23.23
2018-05-10T00:56:52.607Z,19.67
2018-05-10T00:59:19.568Z,20.93
2018-05-10T01:01:46.516Z,25.57
2018-05-10T01:04:14.745Z,27.33
2018-05-10T01:06:42.159Z,23.97
2018-05-10T01:09:09.149Z,20.13
2018-05-10T01:11:36.710Z,22.30
2018-05-10T01:14:03.962Z,22.27
2018-05-10T01:16:30.396Z,27.40
2018-05-10T01:18:57.137Z,25.97
2018-05-10T01:21:23.359Z,33.23
2018-05-10T01:23:49.579Z,26.70
2018-05-10T01:26:15.774Z,21.63
2018-05-10T01:28:41.992Z,29.07
2018-05-10T01:31:08.955Z,26.30
2018-05-10T01:33:35.187Z,31.83
2018-05-10T01:36:10.666Z,24.80
2018-05-10T01:38:36.951Z,29.83
2018-05-10T01:41:03.891Z,25.17
2018-05-10T01:43:30.831Z,26.30
2018-05-10T01:45:57.802Z,26.50
2018-05-10T01:48:24.059Z,25.27
2018-05-10T01:50:50.300Z,24.10
2018-05-10T01:53:16.527Z,27.00
2018-05-10T01:55:42.743Z,28.00
2018-05-10T01:58:08.935Z,26.37
2018-05-10T02:00:35.890Z,30.40
2018-05-10T02:03:02.089Z,23.40
2018-05-10T02:05:29.082Z,23.13
2018-05-10T02:07:55.276Z,31.53
2018-05-10T02:10:21.515Z,29.63
2018-05-10T02:12:47.709Z,28.20
2018-05-10T02:15:13.907Z,20.50
2018-05-10T02:17:40.126Z,31.10
2018-05-10T02:20:06.343Z,25.43
2018-05-10T02:22:32.550Z,20.47
2018-05-10T02:24:59.487Z,21.00
2018-05-10T02:27:26.473Z,25.70
2018-05-10T02:29:52.662Z,26.00
2018-05-10T02:32:19.620Z,23.07
2018-05-10T02:34:46.575Z,26.97
2018-05-10T02:37:12.800Z,21.33
2018-05-10T02:39:38.999Z,26.73
2018-05-10T02:42:05.964Z,27.30
2018-05-10T02:44:32.905Z,29.67
2018-05-10T02:46:59.848Z,28.57
2018-05-10T02:49:26.810Z,28.17
2018-05-10T02:51:53.772Z,22.37
2018-05-10T02:54:19.991Z,24.37
2018-05-10T02:56:46.211Z,33.13
2018-05-10T02:59:13.176Z,33.47
2018-05-10T03:01:39.373Z,25.67
2018-05-10T03:04:06.371Z,31.33
2018-05-10T03:06:32.596Z,30.43
2018-05-10T03:08:58.820Z,28.93
2018-05-10T03:11:25.088Z,29.80
2018-05-10T03:13:51.313Z,30.73
2018-05-10T03:16:18.230Z,32.47
2018-05-10T03:18:44.423Z,38.53
2018-05-10T03:21:11.383Z,34.20
2018-05-10T03:23:37.582Z,37.73
2018-05-10T03:26:04.567Z,42.57
2018-05-10T03:28:30.759Z,45.70
2018-05-10T03:30:57.719Z,52.97
2018-05-10T03:33:24.694Z,42.07
2018-05-10T03:35:50.954Z,41.77
2018-05-10T03:38:17.150Z,48.23
2018-05-10T03:40:43.372Z,38.07
2018-05-10T03:43:09.563Z,42.90
2018-05-10T03:45:36.526Z,38.00
2018-05-10T03:48:03.460Z,43.20
2018-05-10T03:50:30.427Z,30.73
2018-05-10T03:52:56.666Z,43.13
2018-05-10T03:55:22.907Z,31.03
2018-05-10T03:57:49.103Z,29.37
2018-05-10T04:00:16.040Z,22.23
2018-05-10T04:05:55.482Z,19.73
2018-05-10T04:08:34.131Z,18.30
2018-05-10T04:11:13.643Z,30.03
2018-05-10T04:13:39.839Z,23.00
2018-05-10T04:16:06.035Z,20.67
2018-05-10T04:18:32.254Z,25.90
2018-05-10T04:20:59.195Z,24.70
2018-05-10T04:23:26.147Z,24.87
2018-05-10T04:25:53.083Z,28.13
2018-05-10T04:28:20.042Z,35.10
2018-05-10T04:30:46.978Z,25.23
2018-05-10T04:33:15.371Z,27.83
2018-05-10T04:35:41.609Z,23.77
2018-05-10T04:38:08.559Z,23.13
2018-05-10T04:40:34.755Z,20.90
2018-05-10T04:43:00.972Z,23.07
2018-05-10T04:45:27.162Z,24.27
2018-05-10T04:47:53.383Z,15.07
2018-05-10T04:50:19.575Z,19.40
2018-05-10T04:52:46.563Z,18.30
2018-05-10T04:55:13.051Z,18.77
2018-05-10T04:57:40.302Z,17.17
2018-05-10T05:00:07.253Z,16.03
2018-05-10T05:02:34.223Z,18.67
2018-05-10T05:05:00.424Z,17.13
2018-05-10T05:07:26.625Z,20.43
2018-05-10T05:09:55.843Z,19.73
2018-05-10T05:12:22.046Z,15.27
2018-05-10T05:14:48.262Z,18.97
2018-05-10T05:17:14.459Z,15.10
2018-05-10T05:19:40.695Z,21.27
2018-05-10T05:22:06.900Z,14.83
2018-05-10T05:24:33.871Z,17.23
2018-05-10T05:27:00.083Z,15.70
2018-05-10T05:29:27.038Z,18.70
2018-05-10T05:31:53.232Z,11.80
2018-05-10T05:34:19.471Z,14.07
2018-05-10T05:36:45.666Z,17.30
2018-05-10T05:39:11.859Z,15.60
2018-05-10T05:41:38.075Z,22.00
2018-05-10T05:44:05.015Z,12.40
2018-05-10T05:46:32.020Z,15.00
2018-05-10T05:48:58.203Z,14.60
2018-05-10T05:51:24.424Z,16.73
2018-05-10T05:53:51.383Z,26.50
2018-05-10T05:56:17.593Z,17.53
2018-05-10T05:58:44.535Z,19.93
2018-05-10T06:01:11.515Z,20.70
2018-05-10T06:03:37.702Z,13.60
2018-05-10T06:06:03.924Z,11.43
2018-05-10T06:08:30.125Z,17.23
2018-05-10T06:10:56.370Z,19.60
2018-05-10T06:13:22.563Z,16.90
2018-05-10T06:15:48.815Z,10.73
2018-05-10T06:18:15.086Z,15.03
2018-05-10T06:20:48.240Z,14.73
2018-05-10T06:23:14.459Z,11.97
2018-05-10T06:25:40.651Z,18.20
2018-05-10T06:28:06.867Z,12.83
2018-05-10T06:30:33.804Z,19.43
2018-05-10T06:33:00.764Z,15.13
2018-05-10T06:35:27.698Z,12.67
2018-05-10T06:37:54.658Z,20.73
2018-05-10T06:40:21.607Z,14.07
2018-05-10T06:42:48.559Z,14.10
2018-05-10T06:45:14.816Z,13.63
2018-05-10T06:47:41.049Z,17.47
2018-05-10T06:50:07.243Z,12.67
2018-05-10T06:52:33.549Z,17.83
2018-05-10T06:55:00.522Z,18.67
2018-05-10T06:57:26.723Z,21.00
2018-05-10T06:59:52.963Z,15.37
2018-05-10T07:02:19.905Z,17.97
2018-05-10T07:04:46.872Z,11.20
2018-05-10T07:07:13.815Z,13.60
2018-05-10T07:09:40.987Z,17.33
2018-05-10T07:12:06.987Z,15.20
2018-05-10T07:14:33.923Z,11.60
2018-05-10T07:17:00.859Z,19.73
2018-05-10T07:19:27.086Z,15.23
2018-05-10T07:21:53.287Z,10.77
2018-05-10T07:24:19.491Z,12.90
2018-05-10T07:26:46.454Z,14.80
2018-05-10T07:29:12.653Z,14.80
2018-05-10T07:31:38.874Z,14.73
2018-05-10T07:34:05.070Z,11.03
2018-05-10T07:36:32.040Z,17.10
2018-05-10T07:38:59.047Z,10.30
2018-05-10T07:41:25.263Z,9.67
2018-05-10T07:43:51.491Z,14.47
2018-05-10T07:46:17.707Z,13.60
2018-05-10T07:48:43.907Z,17.33
2018-05-10T07:51:10.880Z,16.67
2018-05-10T07:53:37.103Z,11.67
2018-05-10T07:56:03.326Z,12.27
2018-05-10T07:58:29.528Z,14.30
2018-05-10T08:00:56.499Z,14.00
2018-05-10T08:03:22.702Z,12.13
2018-05-10T08:05:49.643Z,9.77
2018-05-10T08:08:16.610Z,8.83
2018-05-10T08:10:42.808Z,11.83
2018-05-10T08:13:09.031Z,11.50
2018-05-10T08:15:35.226Z,9.57
2018-05-10T08:18:01.447Z,9.90
2018-05-10T08:20:27.639Z,16.60
2018-05-10T08:22:54.615Z,13.60
2018-05-10T08:25:20.802Z,10.27
2018-05-10T08:27:47.791Z,10.13
2018-05-10T08:30:14.028Z,15.13
2018-05-10T08:32:40.247Z,8.77
2018-05-10T08:35:06.446Z,7.07
2018-05-10T08:37:33.391Z,11.80
2018-05-10T08:40:00.346Z,13.13
2018-05-10T08:42:26.551Z,15.27
2018-05-10T08:44:52.772Z,9.77
2018-05-10T08:47:18.968Z,11.40
2018-05-10T08:49:45.195Z,17.97
2018-05-10T08:52:11.415Z,10.17
2018-05-10T08:54:37.627Z,9.77
2018-05-10T08:57:04.471Z,8.60
2018-05-10T08:59:30.683Z,8.37
2018-05-10T09:01:57.647Z,9.50
2018-05-10T09:04:23.874Z,9.70
2018-05-10T09:06:50.067Z,8.70
2018-05-10T09:09:16.278Z,15.60
2018-05-10T09:11:42.510Z,8.97
2018-05-10T09:14:08.754Z,12.10
2018-05-10T09:16:34.959Z,12.90
2018-05-10T09:19:01.241Z,9.40
2018-05-10T09:21:27.402Z,10.30
2018-05-10T09:23:53.599Z,7.80
2018-05-10T09:26:19.876Z,10.60
2018-05-10T09:28:46.067Z,7.10
2018-05-10T09:31:12.287Z,20.20
2018-05-10T09:33:39.222Z,8.13
2018-05-10T09:36:06.191Z,11.67
2018-05-10T09:38:32.390Z,12.97
2018-05-10T09:40:59.350Z,14.23
2018-05-10T09:43:26.474Z,10.47
2018-05-10T09:45:52.694Z,7.67
2018-05-10T09:48:18.897Z,9.13
2018-05-10T09:50:45.110Z,13.27
2018-05-10T09:53:11.339Z,11.13
2018-05-10T09:55:37.543Z,9.60
2018-05-10T09:58:03.767Z,12.63
2018-05-10T10:00:31.106Z,7.73
2018-05-10T10:02:57.332Z,8.93
2018-05-10T10:05:25.007Z,5.97
2018-05-10T10:07:51.972Z,7.12
2018-05-10T10:10:18.167Z,9.38
2018-05-10T10:12:44.411Z,8.35
2018-05-10T10:15:11.347Z,7.47
2018-05-10T10:17:37.600Z,6.50
2018-05-10T10:20:03.807Z,8.73
2018-05-10T10:22:30.039Z,7.97
2018-05-10T10:24:56.973Z,13.88
2018-05-10T10:27:23.173Z,10.43
2018-05-10T10:29:49.547Z,9.38
2018-05-10T10:32:17.416Z,6.83
2018-05-10T10:34:44.694Z,8.13
2018-05-10T10:37:10.895Z,10.40
2018-05-10T10:39:37.855Z,6.50
2018-05-10T10:42:09.087Z,7.33
2018-05-10T10:44:38.004Z,8.23
2018-05-10T10:47:04.210Z,7.00
2018-05-10T10:49:32.182Z,11.77
2018-05-10T10:51:58.462Z,7.85
2018-05-10T10:54:24.683Z,6.85
2018-05-10T10:56:59.505Z,9.20
2018-05-10T10:59:25.725Z,6.35
2018-05-10T11:01:51.963Z,9.35
2018-05-10T11:04:18.179Z,7.70
2018-05-10T11:06:51.308Z,20.23
2018-05-10T11:09:17.538Z,9.83
2018-05-10T11:11:43.746Z,6.40
2018-05-10T11:14:09.971Z,5.73
2018-05-10T11:16:36.166Z,6.90
2018-05-10T11:19:03.139Z,5.53
2018-05-10T11:21:29.336Z,9.20
2018-05-10T11:23:56.300Z,5.57
2018-05-10T11:26:22.523Z,4.53
2018-05-10T11:28:49.537Z,5.20
2018-05-10T11:31:15.756Z,5.73
2018-05-10T11:33:41.952Z,7.10
2018-05-10T11:36:08.188Z,6.03
2018-05-10T11:38:34.394Z,10.67
2018-05-10T11:41:00.619Z,4.10
2018-05-10T11:43:26.823Z,7.57
2018-05-10T11:45:53.791Z,7.97
2018-05-10T11:48:20.733Z,6.82
2018-05-10T11:50:47.695Z,9.45
2018-05-10T11:53:13.915Z,8.38
2018-05-10T11:55:40.143Z,7.30
2018-05-10T11:58:06.339Z,9.37
2018-05-10T12:00:32.543Z,6.87
2018-05-10T12:02:58.766Z,7.00
2018-05-10T12:05:24.963Z,6.73
2018-05-10T12:07:51.178Z,5.95
2018-05-10T12:10:18.114Z,8.25
2018-05-10T12:12:45.071Z,9.02
2018-05-10T12:15:12.071Z,11.45
2018-05-10T12:17:38.331Z,4.62
2018-05-10T12:20:04.527Z,11.12
2018-05-10T12:22:30.747Z,5.43
2018-05-10T12:24:56.948Z,9.97
2018-05-10T12:27:23.180Z,9.00
2018-05-10T12:29:49.835Z,6.20
2018-05-10T12:32:16.051Z,6.03
2018-05-10T12:34:42.287Z,8.20
2018-05-10T12:37:08.475Z,10.20
2018-05-10T12:39:35.435Z,7.20
2018-05-10T12:42:02.380Z,10.30
2018-05-10T12:44:32.632Z,11.97
2018-05-10T12:46:58.827Z,13.80
2018-05-10T12:49:25.789Z,7.40
2018-05-10T12:51:52.027Z,6.10
2018-05-10T12:54:18.281Z,7.60
2018-05-10T12:56:44.479Z,5.70
2018-05-10T12:59:10.699Z,5.00
2018-05-10T13:01:37.636Z,10.83
2018-05-10T13:04:04.595Z,7.00
2018-05-10T13:06:30.795Z,7.10
2018-05-10T13:08:57.019Z,7.80
2018-05-10T13:11:23.215Z,5.30
2018-05-10T13:13:49.443Z,7.43
2018-05-10T13:16:15.682Z,11.53
2018-05-10T13:18:41.902Z,3.87
2018-05-10T13:21:08.134Z,7.80
2018-05-10T13:23:34.323Z,8.20
2018-05-10T13:26:01.937Z,6.87
2018-05-10T13:28:29.471Z,10.43
2018-05-10T13:30:56.210Z,5.30
2018-05-10T13:33:22.399Z,5.30
2018-05-10T13:35:49.371Z,6.27
2018-05-10T13:38:15.617Z,10.10
2018-05-10T13:40:42.153Z,6.53
2018-05-10T13:43:08.355Z,10.77
2018-05-10T13:45:41.652Z,7.80
2018-05-10T13:48:07.846Z,4.93
2018-05-10T13:50:34.067Z,8.63
2018-05-10T13:53:01.101Z,6.13
2018-05-10T13:55:27.287Z,4.97
2018-05-10T13:57:53.479Z,3.07
2018-05-10T14:00:19.675Z,6.10
2018-05-10T14:02:45.908Z,4.20
2018-05-10T14:05:12.099Z,4.53
2018-05-10T14:07:38.319Z,4.87
2018-05-10T14:10:05.263Z,5.43
2018-05-10T14:12:32.218Z,7.10
2018-05-10T14:14:58.426Z,6.00
2018-05-10T14:17:25.408Z,5.50
2018-05-10T14:19:51.614Z,6.53
2018-05-10T14:22:18.567Z,6.27
2018-05-10T14:24:44.758Z,5.27
2018-05-10T14:27:10.976Z,5.30
2018-05-10T14:29:37.176Z,8.30
2018-05-10T14:32:04.139Z,6.37
2018-05-10T14:34:30.331Z,9.83
2018-05-10T14:36:56.577Z,15.20
2018-05-10T14:39:22.834Z,12.27
2018-05-10T14:41:49.013Z,9.07
2018-05-10T14:44:15.226Z,10.10
2018-05-10T14:46:42.196Z,8.77
2018-05-10T14:49:08.415Z,10.23
2018-05-10T14:51:35.349Z,15.27
2018-05-10T14:54:02.380Z,33.10
2018-05-10T14:56:28.551Z,37.23
2018-05-10T14:58:54.766Z,39.07
2018-05-10T15:01:20.964Z,43.50
2018-05-10T15:03:47.827Z,35.20
2018-05-10T15:06:14.758Z,35.00
2018-05-10T15:08:40.974Z,26.97
2018-05-10T15:11:07.907Z,20.27
2018-05-10T15:13:35.401Z,20.03
2018-05-10T15:16:02.331Z,9.40
2018-05-10T15:18:29.295Z,10.83
2018-05-10T15:20:56.235Z,14.90
2018-05-10T15:23:23.199Z,12.57
2018-05-10T15:25:49.407Z,9.70
2018-05-10T15:28:15.651Z,9.83
2018-05-10T15:30:42.582Z,8.13
2018-05-10T15:33:09.887Z,10.57
2018-05-10T15:35:36.092Z,7.73
2018-05-10T15:38:02.291Z,7.07
2018-05-10T15:40:28.502Z,13.60
2018-05-10T15:42:54.722Z,10.73
2018-05-10T15:45:20.939Z,12.40
2018-05-10T15:47:47.275Z,8.97
2018-05-10T15:50:13.471Z,7.40
2018-05-10T15:52:39.697Z,6.80
2018-05-10T15:55:06.011Z,8.43
2018-05-10T15:57:32.983Z,7.30
2018-05-10T15:59:59.174Z,9.60
2018-05-10T16:02:26.134Z,7.40
2018-05-10T16:04:53.075Z,7.93
2018-05-10T16:07:20.040Z,8.20
2018-05-10T16:09:46.271Z,6.57
2018-05-10T16:12:12.462Z,5.53
2018-05-10T16:14:38.684Z,5.93
2018-05-10T16:17:05.687Z,6.50
2018-05-10T16:19:31.875Z,7.93
2018-05-10T16:21:58.131Z,5.90
2018-05-10T16:24:25.872Z,7.13
2018-05-10T16:26:52.843Z,5.57
2018-05-10T16:29:19.037Z,6.87
2018-05-10T16:31:45.255Z,6.80
2018-05-10T16:34:14.318Z,7.57
2018-05-10T16:36:40.516Z,5.00
2018-05-10T16:39:06.743Z,8.57
2018-05-10T16:41:32.939Z,7.57
2018-05-10T16:43:59.894Z,5.87
2018-05-10T16:46:26.859Z,6.67
2018-05-10T16:48:53.823Z,8.10
2018-05-10T16:51:20.024Z,6.50
2018-05-10T16:53:46.266Z,5.83
2018-05-10T16:56:13.199Z,8.43
2018-05-10T16:58:40.159Z,7.73
2018-05-10T17:01:07.096Z,8.00
2018-05-10T17:03:34.076Z,6.17
2018-05-10T17:06:00.335Z,11.50
2018-05-10T17:08:26.595Z,16.43
2018-05-10T17:10:53.526Z,15.10
2018-05-10T17:13:19.792Z,15.43
2018-05-10T17:15:45.987Z,15.60
2018-05-10T17:18:12.974Z,16.97
2018-05-10T17:20:39.187Z,16.70
2018-05-10T17:23:06.157Z,23.73
2018-05-10T17:25:32.352Z,17.43
2018-05-10T17:27:59.290Z,22.47
2018-05-10T17:30:25.537Z,24.73
2018-05-10T17:32:52.520Z,25.20
2018-05-10T17:35:18.719Z,28.77
2018-05-10T17:37:44.911Z,27.60
2018-05-10T17:40:11.871Z,26.53
2018-05-10T17:42:38.815Z,23.10
2018-05-10T17:45:05.040Z,28.47
2018-05-10T17:47:31.239Z,23.30
2018-05-10T17:49:57.467Z,22.67
2018-05-10T17:52:23.672Z,28.07
2018-05-10T17:54:56.024Z,22.20
2018-05-10T17:57:23.672Z,20.83
2018-05-10T17:59:50.632Z,23.03
2018-05-10T18:02:17.636Z,24.23
2018-05-10T18:04:43.880Z,22.77
2018-05-10T18:07:11.030Z,33.77
2018-05-10T18:09:37.523Z,22.40
2018-05-10T18:12:03.716Z,18.17
2018-05-10T18:14:30.683Z,20.83
2018-05-10T18:16:56.880Z,25.07
2018-05-10T18:19:23.842Z,32.13
2018-05-10T18:21:50.775Z,17.10
2018-05-10T18:24:17.715Z,20.50
2018-05-10T18:26:44.684Z,18.97
2018-05-10T18:29:10.887Z,22.80
2018-05-10T18:31:37.882Z,26.93
2018-05-10T18:34:04.074Z,20.10
2018-05-10T18:36:31.707Z,20.13
2018-05-10T18:38:57.904Z,20.93
2018-05-10T18:41:24.127Z,20.10
2018-05-10T18:43:50.326Z,20.83
2018-05-10T18:46:16.551Z,19.53
2018-05-10T18:48:43.487Z,21.13
2018-05-10T18:51:10.447Z,25.50
2018-05-10T18:53:37.383Z,24.90
2018-05-10T18:56:04.347Z,24.00
2018-05-10T18:58:30.582Z,22.60
2018-05-10T19:00:56.803Z,21.53
2018-05-10T19:03:23.006Z,21.50
2018-05-10T19:05:49.967Z,21.00
2018-05-10T19:08:16.899Z,18.60
2018-05-10T19:10:44.155Z,22.23
2018-05-10T19:13:10.343Z,21.70
2018-05-10T19:15:36.572Z,20.93
2018-05-10T19:18:02.762Z,26.60
2018-05-10T19:20:29.984Z,26.83
2018-05-10T19:22:57.662Z,23.37
2018-05-10T19:25:24.599Z,22.73
2018-05-10T19:27:50.843Z,21.20
2018-05-10T19:30:18.460Z,25.80
2018-05-10T19:32:44.655Z,25.23
2018-05-10T19:35:10.859Z,22.37
2018-05-10T19:37:37.119Z,24.93
2018-05-10T19:40:03.338Z,26.90
2018-05-10T19:42:29.564Z,23.17
2018-05-10T19:44:55.758Z,25.70
2018-05-10T19:47:21.979Z,38.53
2018-05-10T19:49:48.180Z,21.90
2018-05-10T19:52:14.420Z,26.07
2018-05-10T19:54:40.623Z,21.67
2018-05-10T19:57:06.842Z,24.20
2018-05-10T19:59:33.039Z,27.13
2018-05-10T20:01:59.997Z,19.30
2018-05-10T20:04:26.935Z,21.50
2018-05-10T20:06:53.896Z,21.13
2018-05-10T20:09:20.097Z,20.93
2018-05-10T20:11:46.346Z,27.03
2018-05-10T20:14:13.291Z,22.27
2018-05-10T20:16:40.249Z,18.17
2018-05-10T20:19:06.455Z,20.63
2018-05-10T20:21:33.419Z,21.50
2018-05-10T20:24:00.455Z,20.77
2018-05-10T20:26:26.680Z,17.63
2018-05-10T20:28:53.643Z,20.73
2018-05-10T20:31:19.895Z,19.50
2018-05-10T20:33:46.095Z,15.60
2018-05-10T20:36:13.110Z,16.80
2018-05-10T20:38:39.307Z,13.93
2018-05-10T20:41:05.526Z,18.33
2018-05-10T20:43:31.723Z,21.23
2018-05-10T20:45:58.691Z,18.60
2018-05-10T20:48:24.887Z,21.80
2018-05-10T20:50:51.107Z,20.47
2018-05-10T20:53:17.299Z,19.20
2018-05-10T20:55:43.521Z,16.53
2018-05-10T20:58:09.715Z,18.73
2018-05-10T21:00:36.675Z,17.87
2018-05-10T21:03:02.870Z,15.50
2018-05-10T21:05:29.090Z,15.93
2018-05-10T21:07:55.289Z,11.27
2018-05-10T21:10:21.576Z,16.00
2018-05-10T21:12:48.507Z,13.77
2018-05-10T21:15:14.754Z,13.50
2018-05-10T21:17:41.702Z,16.33
2018-05-10T21:20:08.660Z,16.03
2018-05-10T21:22:34.855Z,14.60
2018-05-10T21:25:01.084Z,11.33
2018-05-10T21:27:27.270Z,12.10
2018-05-10T21:29:53.467Z,14.57
2018-05-10T21:32:19.706Z,12.67
2018-05-10T21:34:45.903Z,13.03
2018-05-10T21:37:12.123Z,14.80
2018-05-10T21:39:38.327Z,17.43
2018-05-10T21:42:04.555Z,13.67
2018-05-10T21:44:30.745Z,13.23
2018-05-10T21:46:56.968Z,19.63
2018-05-10T21:49:35.407Z,13.90
2018-05-10T21:52:01.633Z,10.80
2018-05-10T21:54:27.822Z,13.37
2018-05-10T21:56:54.759Z,13.40
2018-05-10T21:59:20.984Z,13.43
2018-05-10T22:01:47.179Z,12.30
2018-05-10T22:04:13.435Z,12.43
2018-05-10T22:06:39.659Z,15.40
2018-05-10T22:09:05.968Z,15.83
2018-05-10T22:11:32.109Z,10.30
2018-05-10T22:13:58.330Z,11.73
2018-05-10T22:16:24.527Z,11.77
2018-05-10T22:18:50.743Z,10.20
2018-05-10T22:21:17.743Z,15.77
2018-05-10T22:23:43.973Z,17.03
2018-05-10T22:26:10.169Z,14.80
2018-05-10T22:28:36.388Z,13.30
2018-05-10T22:31:02.613Z,13.60
2018-05-10T22:33:28.835Z,14.23
2018-05-10T22:35:55.820Z,12.43
2018-05-10T22:38:22.039Z,11.67
2018-05-10T22:40:48.231Z,13.87
2018-05-10T22:43:15.182Z,11.60
2018-05-10T22:45:42.123Z,10.47
2018-05-10T22:48:09.098Z,10.80
2018-05-10T22:50:35.310Z,11.50
2018-05-10T22:53:01.508Z,10.63
2018-05-10T22:55:27.723Z,14.10
2018-05-10T22:57:53.920Z,9.03
2018-05-10T23:00:20.145Z,15.97
2018-05-10T23:02:46.339Z,14.37
2018-05-10T23:05:13.301Z,10.60
2018-05-10T23:07:39.502Z,10.77
2018-05-10T23:10:05.716Z,14.70
2018-05-10T23:12:31.911Z,12.10
2018-05-10T23:14:58.155Z,12.40
2018-05-10T23:17:24.351Z,10.93
2018-05-10T23:19:50.574Z,12.40
2018-05-10T23:22:16.773Z,8.10
2018-05-10T23:24:43.739Z,10.10
2018-05-10T23:27:10.677Z,12.13
2018-05-10T23:29:37.704Z,13.40
2018-05-10T23:32:03.903Z,10.97
2018-05-10T23:34:30.127Z,11.80
2018-05-10T23:36:56.326Z,11.37
2018-05-10T23:39:22.547Z,9.80
2018-05-10T23:41:49.551Z,11.20
2018-05-10T23:44:16.609Z,10.30
2018-05-10T23:46:42.805Z,10.10
2018-05-10T23:49:09.032Z,17.90
2018-05-10T23:51:35.215Z,14.27
2018-05-10T23:54:02.171Z,12.93
2018-05-10T23:56:29.111Z,17.50
2018-05-10T23:58:56.043Z,13.23
